map of LCY home
LCY - Airport
Location
City:  London, England, United Kingdom
Name:London City Airport
ICAO:EGLC
IATA:LCY

Details
Type:Airport (Aerodrome, Airfield)
Use:Public/Civil, International (customs port of entry)
Latitude:5130'19"N (51.505278)
Longitude:003'19"E (0.055278)
Elevation:19 ft (6 m)
Variation:0.38W (WMM2015 magnetic declination)
0.15 annual change
Runways:1
Longest:4948 × 98 ft (1508 × 30 m), paved

Time
Time Zone:UTC+0 (DST+1)
Local Time:

Weather
METAR:EGLC 131220Z AUTO 22009KT 190V250 9999 -RA BKN040/// BKN049/// //////TCU 09/06 Q0996

Related Locations
Nearby:
Farthest:CHT: 11875 mi / 19111 km
Waitangi [Tuuta], CIT, NZ

Find:

   beyond  
but within

Other Information
Maps:
NOTAMs:
Links:
Sources:

  
flag of United Kingdom
flag of England
  

Airport Diagram

Airport diagram for LCY

Airport diagram PDF

Sectional Chart

Flight Planning
at skyvector.com

Satellite Image

Google Maps Satellite view

 

Copyright © 2004-2017 Karl L. Swartz. All rights reserved.
The Great Circle Mapper name and logo are trademarks of the Great Circle Mapper.
All other trademarks mentioned herein belong to their respective owners.
Please see credits for attibutions and further copyright information.

  Follow gcmap on Facebook Follow gcmap on Twitter Follow gcmap on Google+ GCmap on LinkedIn

hCard Microformat

Geo Microformat